createdAt,value
2019-03-10T00:00:38.734Z,1.57
2019-03-10T00:03:08.892Z,1.50
2019-03-10T00:05:38.503Z,1.53
2019-03-10T00:08:08.410Z,1.77
2019-03-10T00:10:38.212Z,1.80
2019-03-10T00:13:07.869Z,1.50
2019-03-10T00:15:40.651Z,1.67
2019-03-10T00:18:14.758Z,1.60
2019-03-10T00:20:47.205Z,2.13
2019-03-10T00:23:16.974Z,1.80
2019-03-10T00:25:48.379Z,1.90
2019-03-10T00:28:18.889Z,2.27
2019-03-10T00:30:48.667Z,2.00
2019-03-10T00:33:18.476Z,2.10
2019-03-10T00:35:48.295Z,2.30
2019-03-10T00:38:18.018Z,1.70
2019-03-10T00:41:11.864Z,2.27
2019-03-10T00:44:33.239Z,1.97
2019-03-10T00:47:43.990Z,1.80
2019-03-10T00:50:48.535Z,2.23
2019-03-10T00:53:18.384Z,2.13
2019-03-10T00:55:48.266Z,2.27
2019-03-10T00:58:18.005Z,1.73
2019-03-10T01:00:47.695Z,2.00
2019-03-10T01:03:17.409Z,1.80
2019-03-10T01:05:47.214Z,1.90
2019-03-10T01:08:16.866Z,2.50
2019-03-10T01:10:46.663Z,2.20
2019-03-10T01:13:16.432Z,1.90
2019-03-10T01:15:46.438Z,2.10
2019-03-10T01:18:17.509Z,1.70
2019-03-10T01:20:48.755Z,1.50
2019-03-10T01:23:18.509Z,1.67
2019-03-10T01:25:48.273Z,1.67
2019-03-10T01:28:18.034Z,1.40
2019-03-10T01:30:59.195Z,1.30
2019-03-10T01:34:01.517Z,1.30
2019-03-10T01:36:29.444Z,1.40
2019-03-10T01:38:59.227Z,1.53
2019-03-10T01:41:28.985Z,1.13
2019-03-10T01:43:58.754Z,1.20
2019-03-10T01:46:28.463Z,1.23
2019-03-10T01:48:58.262Z,1.40
2019-03-10T01:51:28.085Z,1.20
2019-03-10T01:53:58.180Z,1.60
2019-03-10T01:56:28.055Z,1.20
2019-03-10T01:58:57.761Z,1.30
2019-03-10T02:01:27.506Z,1.10
2019-03-10T02:03:57.354Z,1.70
2019-03-10T02:06:27.203Z,1.10
2019-03-10T02:08:56.881Z,1.37
2019-03-10T02:11:26.853Z,1.30
2019-03-10T02:13:56.698Z,1.50
2019-03-10T02:16:26.549Z,1.10
2019-03-10T02:18:56.422Z,1.40
2019-03-10T02:21:26.296Z,1.50
2019-03-10T02:23:56.153Z,1.87
2019-03-10T02:26:25.987Z,1.60
2019-03-10T02:28:55.833Z,1.40
2019-03-10T02:31:25.593Z,1.33
2019-03-10T02:33:55.967Z,1.40
2019-03-10T02:36:25.833Z,1.63
2019-03-10T02:38:55.578Z,1.50
2019-03-10T02:41:25.350Z,1.43
2019-03-10T02:43:55.079Z,1.40
2019-03-10T02:46:24.804Z,1.53
2019-03-10T02:48:54.522Z,1.37
2019-03-10T02:51:24.691Z,1.70
2019-03-10T02:53:54.418Z,1.33
2019-03-10T02:56:24.154Z,1.80
2019-03-10T02:58:53.846Z,1.53
2019-03-10T03:01:23.631Z,1.50
2019-03-10T03:03:53.294Z,1.40
2019-03-10T03:06:23.720Z,1.70
2019-03-10T03:08:53.515Z,1.40
2019-03-10T03:11:23.401Z,1.50
2019-03-10T03:13:53.152Z,1.80
2019-03-10T03:16:22.928Z,1.50
2019-03-10T03:18:52.595Z,1.80
2019-03-10T03:21:23.134Z,1.97
2019-03-10T03:23:52.922Z,1.53
2019-03-10T03:26:22.707Z,1.40
2019-03-10T03:28:52.553Z,1.80
2019-03-10T03:31:22.273Z,1.73
2019-03-10T03:33:51.955Z,1.63
2019-03-10T03:36:25.964Z,1.73
2019-03-10T03:39:18.950Z,1.70
2019-03-10T03:41:48.691Z,1.80
2019-03-10T03:44:18.419Z,1.40
2019-03-10T03:46:48.175Z,1.83
2019-03-10T03:49:17.898Z,1.80
2019-03-10T03:51:47.731Z,1.60
2019-03-10T03:54:17.690Z,2.00
2019-03-10T03:56:47.421Z,1.87
2019-03-10T03:59:17.156Z,1.50
2019-03-10T04:02:14.549Z,1.67
2019-03-10T04:04:44.414Z,1.50
2019-03-10T04:07:14.148Z,1.40
2019-03-10T04:09:43.830Z,1.30
2019-03-10T04:12:13.612Z,1.40
2019-03-10T04:14:43.311Z,1.63
2019-03-10T04:17:12.979Z,1.60
2019-03-10T04:19:42.824Z,1.83
2019-03-10T04:22:12.579Z,1.77
2019-03-10T04:24:42.257Z,1.80
2019-03-10T04:27:12.016Z,1.57
2019-03-10T04:29:41.763Z,1.93
2019-03-10T04:32:11.621Z,1.80
2019-03-10T04:34:41.285Z,1.97
2019-03-10T04:37:11.039Z,2.00
2019-03-10T04:39:40.726Z,2.30
2019-03-10T04:42:10.527Z,2.30
2019-03-10T04:44:40.310Z,1.67
2019-03-10T04:47:09.972Z,1.70
2019-03-10T04:49:39.698Z,2.23
2019-03-10T04:52:09.434Z,1.90
2019-03-10T04:54:59.267Z,2.17
2019-03-10T04:57:28.988Z,2.03
2019-03-10T04:59:58.779Z,1.90
2019-03-10T05:02:28.598Z,2.30
2019-03-10T05:04:58.349Z,2.07
2019-03-10T05:07:28.142Z,2.10
2019-03-10T05:09:57.863Z,2.47
2019-03-10T05:12:27.744Z,2.30
2019-03-10T05:14:57.487Z,2.30
2019-03-10T05:17:27.254Z,2.40
2019-03-10T05:19:57.045Z,2.00
2019-03-10T05:22:26.748Z,2.50
2019-03-10T05:24:56.456Z,2.50
2019-03-10T05:27:26.194Z,2.17
2019-03-10T05:29:55.959Z,1.90
2019-03-10T05:32:26.607Z,2.57
2019-03-10T05:34:58.961Z,2.27
2019-03-10T05:37:28.974Z,2.40
2019-03-10T05:39:59.879Z,2.50
2019-03-10T05:42:29.601Z,2.50
2019-03-10T05:44:59.412Z,2.60
2019-03-10T05:47:29.246Z,2.40
2019-03-10T05:49:58.923Z,2.50
2019-03-10T05:52:28.751Z,2.67
2019-03-10T05:55:05.123Z,2.50
2019-03-10T05:57:32.301Z,2.10
2019-03-10T06:00:01.927Z,2.63
2019-03-10T06:02:31.629Z,2.03
2019-03-10T06:05:02.343Z,2.17
2019-03-10T06:07:32.146Z,2.23
2019-03-10T06:10:01.972Z,2.37
2019-03-10T06:12:31.725Z,2.20
2019-03-10T06:15:01.516Z,2.27
2019-03-10T06:17:31.334Z,2.20
2019-03-10T06:20:01.168Z,2.07
2019-03-10T06:22:30.938Z,2.37
2019-03-10T06:25:00.733Z,2.03
2019-03-10T06:27:30.390Z,2.43
2019-03-10T06:30:00.331Z,2.23
2019-03-10T06:32:30.245Z,2.97
2019-03-10T06:35:00.018Z,2.57
2019-03-10T06:37:29.775Z,2.27
2019-03-10T06:39:59.579Z,1.90
2019-03-10T06:42:29.369Z,1.97
2019-03-10T06:44:59.004Z,2.13
2019-03-10T06:47:28.754Z,2.17
2019-03-10T06:50:06.102Z,2.27
2019-03-10T06:52:56.427Z,2.30
2019-03-10T06:55:40.785Z,2.20
2019-03-10T06:58:25.571Z,2.47
2019-03-10T07:00:59.608Z,2.10
2019-03-10T07:03:44.324Z,2.47
2019-03-10T07:06:34.903Z,2.20
2019-03-10T07:09:05.982Z,2.47
2019-03-10T07:11:58.142Z,1.97
2019-03-10T07:14:46.650Z,2.47
2019-03-10T07:17:42.509Z,2.70
2019-03-10T07:20:21.300Z,2.50
2019-03-10T07:23:00.639Z,2.53
2019-03-10T07:25:51.097Z,2.40
2019-03-10T07:28:37.326Z,2.40
2019-03-10T07:31:40.733Z,2.40
2019-03-10T07:35:00.775Z,2.23
2019-03-10T07:38:12.039Z,3.87
2019-03-10T07:41:16.295Z,2.33
2019-03-10T07:43:50.521Z,2.53
2019-03-10T07:46:46.343Z,2.53
2019-03-10T07:49:32.419Z,2.90
2019-03-10T07:52:29.994Z,4.60
2019-03-10T07:55:32.372Z,2.57
2019-03-10T07:58:14.306Z,2.90
2019-03-10T08:01:05.802Z,3.10
2019-03-10T08:04:05.658Z,3.10
2019-03-10T08:07:06.753Z,3.53
2019-03-10T08:10:11.735Z,2.73
2019-03-10T08:13:11.199Z,3.13
2019-03-10T08:15:54.163Z,3.10
2019-03-10T08:18:38.697Z,2.80
2019-03-10T08:21:18.070Z,2.30
2019-03-10T08:24:16.870Z,2.50
2019-03-10T08:26:53.976Z,2.47
2019-03-10T08:29:51.952Z,3.00
2019-03-10T08:32:48.481Z,2.90
2019-03-10T08:35:43.031Z,2.53
2019-03-10T08:38:47.029Z,2.53
2019-03-10T08:41:48.394Z,3.03
2019-03-10T08:45:04.587Z,2.70
2019-03-10T08:47:54.706Z,2.70
2019-03-10T08:50:46.322Z,3.07
2019-03-10T08:54:00.272Z,2.73
2019-03-10T08:56:35.765Z,3.03
2019-03-10T08:59:36.927Z,2.63
2019-03-10T09:02:23.281Z,2.90
2019-03-10T09:05:38.245Z,3.00
2019-03-10T09:08:34.091Z,3.23
2019-03-10T09:11:27.515Z,3.43
2019-03-10T09:14:22.229Z,3.80
2019-03-10T09:17:06.813Z,3.30
2019-03-10T09:19:46.025Z,3.37
2019-03-10T09:22:31.533Z,3.97
2019-03-10T09:25:08.677Z,3.80
2019-03-10T09:27:57.374Z,3.87
2019-03-10T09:30:49.005Z,3.87
2019-03-10T09:33:36.217Z,3.60
2019-03-10T09:36:33.981Z,3.63
2019-03-10T09:39:23.306Z,4.23
2019-03-10T09:42:21.198Z,4.53
2019-03-10T09:45:19.175Z,4.43
2019-03-10T09:48:06.510Z,4.73
2019-03-10T09:50:50.150Z,4.73
2019-03-10T09:53:45.391Z,4.30
2019-03-10T09:56:32.770Z,4.50
2019-03-10T09:59:10.874Z,4.50
2019-03-10T10:02:04.404Z,5.07
2019-03-10T10:04:43.168Z,5.40
2019-03-10T10:07:30.724Z,5.23
2019-03-10T10:10:19.459Z,5.90
2019-03-10T10:13:06.682Z,6.33
2019-03-10T10:15:53.837Z,5.77
2019-03-10T10:18:28.746Z,5.70
2019-03-10T10:21:09.067Z,5.97
2019-03-10T10:24:06.739Z,6.77
2019-03-10T10:26:54.071Z,6.63
2019-03-10T10:29:33.754Z,7.40
2019-03-10T10:32:27.662Z,6.80
2019-03-10T10:35:25.150Z,7.47
2019-03-10T10:38:18.707Z,7.47
2019-03-10T10:41:01.105Z,7.57
2019-03-10T10:43:48.516Z,7.63
2019-03-10T10:46:37.106Z,8.37
2019-03-10T10:49:35.035Z,9.40
2019-03-10T10:52:13.244Z,8.93
2019-03-10T10:55:14.048Z,8.13
2019-03-10T10:58:05.298Z,8.30
2019-03-10T11:00:51.982Z,8.53
2019-03-10T11:03:39.196Z,9.67
2019-03-10T11:06:19.647Z,10.47
2019-03-10T11:09:26.723Z,10.43
2019-03-10T11:12:15.421Z,10.97
2019-03-10T11:15:03.077Z,10.23
2019-03-10T11:17:51.751Z,9.93
2019-03-10T11:20:38.354Z,10.73
2019-03-10T11:23:27.035Z,10.63
2019-03-10T11:26:14.497Z,10.37
2019-03-10T11:29:12.125Z,10.53
2019-03-10T11:31:59.435Z,10.13
2019-03-10T11:34:50.861Z,10.07
2019-03-10T11:37:38.185Z,10.23
2019-03-10T11:40:36.985Z,11.10
2019-03-10T11:43:22.891Z,10.50
2019-03-10T11:46:29.944Z,12.07
2019-03-10T11:49:15.340Z,12.33
2019-03-10T11:52:16.105Z,12.10
2019-03-10T11:54:58.590Z,12.27
2019-03-10T11:57:50.313Z,11.90
2019-03-10T12:00:33.828Z,13.13
2019-03-10T12:03:28.149Z,11.37
2019-03-10T12:06:11.040Z,10.67
2019-03-10T12:09:05.390Z,10.87
2019-03-10T12:11:35.216Z,11.20
2019-03-10T12:14:04.970Z,11.43
2019-03-10T12:16:34.686Z,11.30
2019-03-10T12:19:04.467Z,12.10
2019-03-10T12:21:35.278Z,10.53
2019-03-10T12:24:05.249Z,11.50
2019-03-10T12:26:34.935Z,10.03
2019-03-10T12:29:04.718Z,10.20
2019-03-10T12:31:34.388Z,9.33
2019-03-10T12:34:05.446Z,9.33
2019-03-10T12:36:35.559Z,9.93
2019-03-10T12:39:07.764Z,9.53
2019-03-10T12:41:37.773Z,9.37
2019-03-10T12:44:07.491Z,9.50
2019-03-10T12:46:37.103Z,9.33
2019-03-10T12:49:06.928Z,9.97
2019-03-10T12:51:36.772Z,11.00
2019-03-10T12:54:06.563Z,10.80
2019-03-10T12:56:36.343Z,11.10
2019-03-10T12:59:05.992Z,11.23
2019-03-10T13:01:35.801Z,11.10
2019-03-10T13:04:05.731Z,10.57
2019-03-10T13:06:35.495Z,11.37
2019-03-10T13:09:08.466Z,10.30
2019-03-10T13:11:38.152Z,11.83
2019-03-10T13:14:07.999Z,13.03
2019-03-10T13:16:37.936Z,8.77
2019-03-10T13:19:07.722Z,6.73
2019-03-10T13:21:37.505Z,6.53
2019-03-10T13:24:07.357Z,6.13
2019-03-10T13:26:37.097Z,3.47
2019-03-10T13:29:06.770Z,2.53
2019-03-10T13:31:36.613Z,2.00
2019-03-10T13:34:06.377Z,1.90
2019-03-10T13:36:36.031Z,2.13
2019-03-10T13:39:07.526Z,0.90
2019-03-10T13:41:41.158Z,1.10
2019-03-10T13:44:10.970Z,1.20
2019-03-10T13:46:40.613Z,0.83
2019-03-10T13:49:10.822Z,0.80
2019-03-10T13:51:40.535Z,0.90
2019-03-10T13:54:10.286Z,0.70
2019-03-10T13:56:40.029Z,1.20
2019-03-10T13:59:10.482Z,0.90
2019-03-10T14:01:40.428Z,1.10
2019-03-10T14:04:10.185Z,1.17
2019-03-10T14:06:39.947Z,0.80
2019-03-10T14:09:10.258Z,1.10
2019-03-10T14:11:39.947Z,0.90
2019-03-10T14:14:09.709Z,1.10
2019-03-10T14:16:39.840Z,1.70
2019-03-10T14:19:09.554Z,0.97
2019-03-10T14:21:39.388Z,1.17
2019-03-10T14:24:09.207Z,0.80
2019-03-10T14:26:39.128Z,0.90
2019-03-10T14:29:08.879Z,0.80
2019-03-10T14:31:38.497Z,1.00
2019-03-10T14:34:08.222Z,0.70
2019-03-10T14:36:38.003Z,0.60
2019-03-10T14:39:08.704Z,0.70
2019-03-10T14:41:40.241Z,0.70
2019-03-10T14:44:10.073Z,0.90
2019-03-10T14:46:39.709Z,0.90
2019-03-10T14:49:22.736Z,2.13
2019-03-10T14:51:45.542Z,1.00
2019-03-10T14:54:15.330Z,1.00
2019-03-10T14:56:45.434Z,2.90
2019-03-10T14:59:15.355Z,1.00
2019-03-10T15:01:45.011Z,1.20
2019-03-10T15:04:14.834Z,1.63
2019-03-10T15:06:44.591Z,1.77
2019-03-10T15:09:14.355Z,1.70
2019-03-10T15:11:44.139Z,1.37
2019-03-10T15:14:21.817Z,1.10
2019-03-10T15:16:51.561Z,0.90
2019-03-10T15:19:21.244Z,1.70
2019-03-10T15:21:51.103Z,1.20
2019-03-10T15:24:20.794Z,1.10
2019-03-10T15:26:50.557Z,1.40
2019-03-10T15:29:22.811Z,1.10
2019-03-10T15:31:56.081Z,0.87
2019-03-10T15:34:31.364Z,0.90
2019-03-10T15:37:04.131Z,0.70
2019-03-10T15:39:36.251Z,1.10
2019-03-10T15:42:11.409Z,0.60
2019-03-10T15:44:41.616Z,1.10
2019-03-10T15:47:14.163Z,0.77
2019-03-10T15:49:45.384Z,0.63
2019-03-10T15:52:15.334Z,1.00
2019-03-10T15:54:45.123Z,1.10
2019-03-10T15:57:14.878Z,0.80
2019-03-10T15:59:45.122Z,1.07
2019-03-10T16:02:14.958Z,1.00
2019-03-10T16:04:52.727Z,1.13
2019-03-10T16:07:22.544Z,1.00
2019-03-10T16:09:54.095Z,0.90
2019-03-10T16:12:28.291Z,0.90
2019-03-10T16:14:59.114Z,1.10
2019-03-10T16:17:29.167Z,1.03
2019-03-10T16:20:05.154Z,1.00
2019-03-10T16:22:37.664Z,1.20
2019-03-10T16:25:23.089Z,1.10
2019-03-10T16:27:56.641Z,1.00
2019-03-10T16:30:34.167Z,1.10
2019-03-10T16:33:06.206Z,1.10
2019-03-10T16:35:35.991Z,0.90
2019-03-10T16:38:05.742Z,1.10
2019-03-10T16:40:42.571Z,0.90
2019-03-10T16:43:12.320Z,1.23
2019-03-10T16:45:47.324Z,0.87
2019-03-10T16:48:18.298Z,1.30
2019-03-10T16:50:50.126Z,1.20
2019-03-10T16:53:20.672Z,1.20
2019-03-10T16:55:50.519Z,1.33
2019-03-10T16:58:23.900Z,1.00
2019-03-10T17:00:54.613Z,1.00
2019-03-10T17:03:24.571Z,1.30
2019-03-10T17:05:55.616Z,1.10
2019-03-10T17:08:25.325Z,1.10
2019-03-10T17:11:00.949Z,0.90
2019-03-10T17:13:30.432Z,1.10
2019-03-10T17:16:01.566Z,1.20
2019-03-10T17:18:32.951Z,1.00
2019-03-10T17:21:02.672Z,1.10
2019-03-10T17:23:32.333Z,1.20
2019-03-10T17:26:03.905Z,1.00
2019-03-10T17:28:33.618Z,1.30
2019-03-10T17:31:05.667Z,1.27
2019-03-10T17:33:35.412Z,1.00
2019-03-10T17:36:05.471Z,1.00
2019-03-10T17:38:35.234Z,1.20
2019-03-10T17:41:05.033Z,0.97
2019-03-10T17:43:35.864Z,1.10
2019-03-10T17:46:05.796Z,0.90
2019-03-10T17:48:36.927Z,1.07
2019-03-10T17:51:06.649Z,1.20
2019-03-10T17:53:36.515Z,1.20
2019-03-10T17:56:06.671Z,1.10
2019-03-10T17:58:38.841Z,1.07
2019-03-10T18:01:11.622Z,0.73
2019-03-10T18:03:41.406Z,1.00
2019-03-10T18:06:11.171Z,0.90
2019-03-10T18:08:41.023Z,0.80
2019-03-10T18:11:13.290Z,0.93
2019-03-10T18:13:43.694Z,0.87
2019-03-10T18:16:13.498Z,0.90
2019-03-10T18:18:43.334Z,0.87
2019-03-10T18:21:13.166Z,1.00
2019-03-10T18:23:42.912Z,0.77
2019-03-10T18:26:12.671Z,0.90
2019-03-10T18:28:44.217Z,0.67
2019-03-10T18:31:15.486Z,1.10
2019-03-10T18:33:46.055Z,0.97
2019-03-10T18:36:15.860Z,0.80
2019-03-10T18:38:47.843Z,0.90
2019-03-10T18:41:17.577Z,0.97
2019-03-10T18:43:50.096Z,1.33
2019-03-10T18:46:19.758Z,1.00
2019-03-10T18:48:49.622Z,1.00
2019-03-10T18:51:23.409Z,1.10
2019-03-10T18:53:56.698Z,1.03
2019-03-10T18:56:34.206Z,1.00
2019-03-10T18:59:05.849Z,1.10
2019-03-10T19:01:35.663Z,1.50
2019-03-10T19:04:05.324Z,0.87
2019-03-10T19:06:35.081Z,1.17
2019-03-10T19:09:09.393Z,1.10
2019-03-10T19:11:40.103Z,1.23
2019-03-10T19:14:16.778Z,1.20
2019-03-10T19:16:48.668Z,1.10
2019-03-10T19:19:18.211Z,0.90
2019-03-10T19:21:48.004Z,1.10
2019-03-10T19:24:17.886Z,0.97
2019-03-10T19:26:47.791Z,1.20
2019-03-10T19:29:18.012Z,0.90
2019-03-10T19:31:47.739Z,1.00
2019-03-10T19:34:18.830Z,1.03
2019-03-10T19:36:57.068Z,1.20
2019-03-10T19:39:21.780Z,1.20
2019-03-10T19:41:51.512Z,1.10
2019-03-10T19:44:21.502Z,1.03
2019-03-10T19:46:51.732Z,1.23
2019-03-10T19:49:22.522Z,1.40
2019-03-10T19:51:52.393Z,0.90
2019-03-10T19:54:23.051Z,0.87
2019-03-10T19:56:52.846Z,0.93
2019-03-10T19:59:22.715Z,1.30
2019-03-10T20:02:02.305Z,1.27
2019-03-10T20:04:32.077Z,1.00
2019-03-10T20:07:02.552Z,1.20
2019-03-10T20:09:32.215Z,1.20
2019-03-10T20:12:03.055Z,1.10
2019-03-10T20:14:37.006Z,1.20
2019-03-10T20:17:06.830Z,1.97
2019-03-10T20:19:36.575Z,1.20
2019-03-10T20:22:06.341Z,1.30
2019-03-10T20:24:38.382Z,1.27
2019-03-10T20:27:10.952Z,1.10
2019-03-10T20:29:40.707Z,1.40
2019-03-10T20:32:14.112Z,1.50
2019-03-10T20:34:41.971Z,1.30
2019-03-10T20:37:11.818Z,1.63
2019-03-10T20:39:41.621Z,1.40
2019-03-10T20:42:12.352Z,1.07
2019-03-10T20:44:43.394Z,1.37
2019-03-10T20:47:13.283Z,1.50
2019-03-10T20:49:43.087Z,1.70
2019-03-10T20:52:12.829Z,1.70
2019-03-10T20:54:46.006Z,1.60
2019-03-10T20:57:16.842Z,1.40
2019-03-10T20:59:46.694Z,1.60
2019-03-10T21:02:18.722Z,1.40
2019-03-10T21:04:48.542Z,1.53
2019-03-10T21:07:18.425Z,1.80
2019-03-10T21:09:48.142Z,1.83
2019-03-10T21:12:18.353Z,1.60
2019-03-10T21:14:48.190Z,1.80
2019-03-10T21:17:20.950Z,1.40
2019-03-10T21:19:51.991Z,1.33
2019-03-10T21:22:23.362Z,1.90
2019-03-10T21:24:53.143Z,1.73
2019-03-10T21:27:22.884Z,1.90
2019-03-10T21:29:53.592Z,1.30
2019-03-10T21:32:23.414Z,1.90
2019-03-10T21:34:53.414Z,2.00
2019-03-10T21:37:24.069Z,2.17
2019-03-10T21:39:55.059Z,2.07
2019-03-10T21:42:27.364Z,1.87
2019-03-10T21:44:57.199Z,1.77
2019-03-10T21:47:28.288Z,2.00
2019-03-10T21:50:02.436Z,1.63
2019-03-10T21:52:32.217Z,1.93
2019-03-10T21:55:04.654Z,1.97
2019-03-10T21:57:35.193Z,2.13
2019-03-10T22:00:07.246Z,1.90
2019-03-10T22:02:37.435Z,1.80
2019-03-10T22:05:08.710Z,1.80
2019-03-10T22:07:40.586Z,1.57
2019-03-10T22:10:11.086Z,1.50
2019-03-10T22:12:55.275Z,1.67
2019-03-10T22:15:40.759Z,1.60
2019-03-10T22:18:02.303Z,1.33
2019-03-10T22:20:32.070Z,1.23
2019-03-10T22:23:07.426Z,1.50
2019-03-10T22:25:41.646Z,1.70
2019-03-10T22:31:17.439Z,1.60
2019-03-10T22:33:47.574Z,1.50
2019-03-10T22:36:24.806Z,1.47
2019-03-10T22:38:57.815Z,1.33
2019-03-10T22:41:28.943Z,1.53
2019-03-10T22:44:23.278Z,1.53
2019-03-10T22:49:31.927Z,1.70
2019-03-10T22:52:03.821Z,1.40
2019-03-10T22:54:33.625Z,1.37
2019-03-10T22:57:08.924Z,1.87
2019-03-10T22:59:39.107Z,2.10
2019-03-10T23:02:10.126Z,1.80
2019-03-10T23:04:39.971Z,1.53
2019-03-10T23:07:09.987Z,1.90
2019-03-10T23:10:39.579Z,1.57
2019-03-10T23:13:11.847Z,1.50
2019-03-10T23:15:41.962Z,1.57
2019-03-10T23:18:12.576Z,1.60
2019-03-10T23:20:44.095Z,1.17
2019-03-10T23:23:17.752Z,1.70
2019-03-10T23:27:07.865Z,1.40
2019-03-10T23:29:46.770Z,1.60
2019-03-10T23:33:20.696Z,1.30
2019-03-10T23:39:17.754Z,1.60
2019-03-10T23:41:49.739Z,1.60
2019-03-10T23:44:19.720Z,1.50
2019-03-10T23:46:49.670Z,1.53
2019-03-10T23:49:19.611Z,1.50
2019-03-10T23:51:49.357Z,1.73
2019-03-10T23:54:19.249Z,1.20
2019-03-10T23:56:49.992Z,1.10
2019-03-10T23:59:19.759Z,1.67
